TimeMST,TemperatureF,Dew PointF,Humidity,Sea Level PressureIn,VisibilityMPH,Wind Direction,Wind SpeedMPH,Gust SpeedMPH,PrecipitationIn,Events,Conditions,WindDirDegrees,DateUTC
12:53 AM,19.9,12.9,74,30.13,10.0,NNE,8.1,-,N/A,,Clear,20,2011-12-08 07:53:00
1:53 AM,21.9,15.1,75,30.13,10.0,North,5.8,-,N/A,,Clear,360,2011-12-08 08:53:00
2:53 AM,27.0,17.1,66,30.11,10.0,NNE,6.9,-,N/A,,Overcast,30,2011-12-08 09:53:00
3:53 AM,28.0,18.0,66,30.09,10.0,NE,8.1,-,N/A,,Mostly Cloudy,50,2011-12-08 10:53:00
5:53 AM,26.1,19.0,75,30.15,10.0,Calm,Calm,-,N/A,,Overcast,0,2011-12-08 12:53:00
6:53 AM,23.0,18.0,81,30.18,10.0,WNW,5.8,-,N/A,,Overcast,300,2011-12-08 13:53:00
7:53 AM,23.0,19.0,85,30.17,10.0,NNW,4.6,-,N/A,,Overcast,340,2011-12-08 14:53:00
8:53 AM,26.1,19.9,78,30.18,10.0,North,4.6,-,N/A,,Mostly Cloudy,360,2011-12-08 15:53:00
9:53 AM,27.0,21.0,78,30.19,10.0,North,5.8,-,N/A,,Clear,360,2011-12-08 16:53:00
10:53 AM,30.0,21.9,72,30.18,10.0,NNW,5.8,-,N/A,,Clear,330,2011-12-08 17:53:00
11:53 AM,30.9,21.9,69,30.18,10.0,NNW,10.4,-,N/A,,Partly Cloudy,330,2011-12-08 18:53:00
12:53 PM,33.1,23.0,66,30.17,10.0,North,8.1,-,N/A,,Clear,360,2011-12-08 19:53:00
3:44 PM,28.4,24.8,86,30.06,10.0,NE,6.9,-,N/A,,Mostly Cloudy,50,2011-12-08 22:44:00
3:53 PM,28.9,24.1,82,30.16,10.0,NE,6.9,-,N/A,,Scattered Clouds,50,2011-12-08 22:53:00
4:40 PM,24.8,23.0,93,30.07,10.0,East,6.9,-,N/A,,Mostly Cloudy,80,2011-12-08 23:40:00
4:51 PM,26.6,24.8,93,30.08,8.0,ENE,9.2,-,N/A,,Mostly Cloudy,70,2011-12-08 23:51:00
4:53 PM,27.0,25.0,92,30.18,8.0,ENE,6.9,-,N/A,,Mostly Cloudy,60,2011-12-08 23:53:00
5:03 PM,26.6,24.8,93,30.08,7.0,ENE,9.2,-,N/A,,Overcast,70,2011-12-09 00:03:00
5:53 PM,26.1,25.0,96,30.21,5.0,East,5.8,-,N/A,,Overcast,80,2011-12-09 00:53:00
6:53 PM,25.0,24.1,96,30.22,3.0,ESE,6.9,-,N/A,,Overcast,110,2011-12-09 01:53:00
7:01 PM,24.8,24.8,100,30.10,2.5,ESE,8.1,-,N/A,,Overcast,110,2011-12-09 02:01:00
7:53 PM,25.0,24.1,96,30.24,1.5,SE,6.9,-,N/A,,Overcast,130,2011-12-09 02:53:00
8:09 PM,24.8,24.8,100,30.12,1.2,SE,6.9,-,N/A,,Overcast,140,2011-12-09 03:09:00
8:13 PM,24.8,24.8,100,30.12,0.8,SE,5.8,-,N/A,,Mist,140,2011-12-09 03:13:00
8:38 PM,24.8,24.8,100,30.13,1.0,SE,4.6,-,N/A,,Mist,140,2011-12-09 03:38:00
8:53 PM,25.0,24.1,96,30.24,1.0,South,5.8,-,N/A,,Overcast,190,2011-12-09 03:53:00
9:03 PM,24.8,24.8,100,30.12,1.2,South,4.6,-,N/A,,Overcast,190,2011-12-09 04:03:00
9:10 PM,24.8,24.8,100,30.12,1.8,South,4.6,-,N/A,,Overcast,180,2011-12-09 04:10:00
9:14 PM,24.8,24.8,100,30.12,3.0,South,4.6,-,N/A,,Overcast,180,2011-12-09 04:14:00
9:53 PM,25.0,24.1,96,30.24,5.0,South,5.8,-,N/A,,Overcast,170,2011-12-09 04:53:00
10:53 PM,25.0,24.1,96,30.24,6.0,South,5.8,-,N/A,,Overcast,190,2011-12-09 05:53:00
11:53 PM,25.0,24.1,96,30.24,4.0,SW,4.6,-,N/A,,Overcast,230,2011-12-09 06:53:00